Time;durP1;ratioP1;P1;durP2;ratioP2;P2;SDS_P1;SDS_P2;PMS_P1;PMS_P2;Temp;Humidity;BMP_temperature;BMP_pressure;BME280_temperature;BME280_humidity;BME280_pressure;Samples;Min_cycle;Max_cycle;Signal;HPM_P1;HPM_P2
2021/01/26 00:02:51;;;;;;;4.78;2.10;;;6.80;58.20;;;;;;6208600;28;20447;-74
2021/01/26 00:05:53;;;;;;;3.33;1.98;;;6.80;58.10;;;;;;6192049;28;20084;-75
2021/01/26 00:08:54;;;;;;;3.67;1.92;;;6.80;58.10;;;;;;6189027;28;20120;-76
2021/01/26 00:11:54;;;;;;;5.30;1.92;;;6.80;58.10;;;;;;6190364;28;20053;-75
2021/01/26 00:14:55;;;;;;;3.30;2.45;;;6.80;58.10;;;;;;6205387;28;20034;-75
2021/01/26 00:17:56;;;;;;;6.55;2.88;;;6.80;58.20;;;;;;6206402;28;20388;-76
2021/01/26 00:20:58;;;;;;;3.47;2.38;;;6.90;58.40;;;;;;6223558;28;20065;-74
2021/01/26 00:23:59;;;;;;;10.10;2.67;;;6.90;58.50;;;;;;6221103;28;20073;-74
2021/01/26 00:27:00;;;;;;;12.07;3.05;;;7.00;58.60;;;;;;6206716;28;20463;-74
2021/01/26 00:30:05;;;;;;;4.68;2.10;;;7.00;58.60;;;;;;6205695;28;20046;-74
2021/01/26 00:33:11;;;;;;;9.25;3.05;;;7.10;58.50;;;;;;6221565;28;20038;-74
2021/01/26 00:36:12;;;;;;;4.05;2.25;;;7.10;58.50;;;;;;6205824;28;20029;-75
2021/01/26 00:39:12;;;;;;;5.63;2.92;;;7.10;58.50;;;;;;6207330;28;20133;-75
2021/01/26 00:42:13;;;;;;;3.92;2.13;;;7.20;58.50;;;;;;6206732;28;20030;-75
2021/01/26 00:45:15;;;;;;;3.70;1.65;;;7.20;58.60;;;;;;6224151;28;20379;-76
2021/01/26 00:48:16;;;;;;;3.83;1.90;;;7.20;58.70;;;;;;6204770;28;20025;-74
2021/01/26 00:51:18;;;;;;;3.38;1.75;;;7.20;58.90;;;;;;6203021;28;20096;-74
2021/01/26 00:54:19;;;;;;;6.97;1.67;;;7.20;59.30;;;;;;6189310;28;20452;-74
2021/01/26 00:57:21;;;;;;;7.40;1.83;;;7.20;60.00;;;;;;6206020;28;20048;-76
2021/01/26 01:00:26;;;;;;;3.70;1.67;;;7.20;59.60;;;;;;6189963;28;20042;-75
2021/01/26 01:03:28;;;;;;;2.67;1.50;;;7.20;59.60;;;;;;6199876;28;20254;-75
2021/01/26 01:06:29;;;;;;;4.28;1.77;;;7.20;59.70;;;;;;6177471;28;20053;-75
2021/01/26 01:09:30;;;;;;;2.70;1.88;;;7.20;59.80;;;;;;6178871;28;20057;-74
2021/01/26 01:12:31;;;;;;;6.80;2.30;;;7.20;60.00;;;;;;6163439;28;20033;-74
2021/01/26 01:15:32;;;;;;;5.00;2.38;;;7.20;60.10;;;;;;6178446;28;20031;-74
2021/01/26 01:18:33;;;;;;;4.45;2.40;;;7.10;60.20;;;;;;6180181;28;20498;-74
2021/01/26 01:21:34;;;;;;;3.60;1.88;;;7.10;60.40;;;;;;6194570;28;20031;-73
2021/01/26 01:24:37;;;;;;;9.65;2.92;;;7.10;60.60;;;;;;6197968;28;20097;-74
2021/01/26 01:27:39;;;;;;;4.38;2.45;;;7.00;60.70;;;;;;6178212;28;20034;-75
2021/01/26 01:30:40;;;;;;;3.97;1.88;;;7.00;61.00;;;;;;6163405;28;20129;-74
2021/01/26 01:33:42;;;;;;;4.97;2.50;;;6.90;60.80;;;;;;6180683;28;20034;-74
2021/01/26 01:36:43;;;;;;;5.75;2.75;;;6.90;60.90;;;;;;6179582;28;20046;-74
2021/01/26 01:39:44;;;;;;;3.88;2.38;;;6.90;61.00;;;;;;6157495;28;20034;-74
2021/01/26 01:42:48;;;;;;;5.80;1.88;;;6.90;60.90;;;;;;6195810;28;20439;-74
2021/01/26 01:45:49;;;;;;;10.07;1.90;;;6.90;60.80;;;;;;6179825;28;20113;-74
2021/01/26 01:48:52;;;;;;;7.95;3.15;;;6.90;60.60;;;;;;6178832;28;20037;-74
2021/01/26 01:51:55;;;;;;;4.80;2.65;;;6.90;60.30;;;;;;6203799;28;20403;-75
2021/01/26 01:55:11;;;;;;;5.43;3.00;;;6.90;60.00;;;;;;6196080;28;20100;-75
2021/01/26 01:58:21;;;;;;;3.95;2.55;;;6.90;59.90;;;;;;6195850;28;20125;-76
2021/01/26 02:01:29;;;;;;;4.90;2.60;;;6.90;59.90;;;;;;6201955;28;20049;-76
2021/01/26 02:04:32;;;;;;;4.32;2.75;;;6.80;59.90;;;;;;6219928;28;20045;-74
2021/01/26 02:07:33;;;;;;;9.38;3.45;;;6.80;60.20;;;;;;6220497;28;20038;-74
2021/01/26 02:10:34;;;;;;;5.00;2.35;;;6.80;60.50;;;;;;6206359;28;20145;-75
2021/01/26 02:13:35;;;;;;;5.63;2.75;;;6.70;60.80;;;;;;6202349;28;20111;-75
2021/01/26 02:16:39;;;;;;;7.00;3.55;;;6.70;61.00;;;;;;6202617;28;20065;-74
2021/01/26 02:19:52;;;;;;;8.02;2.78;;;6.70;61.10;;;;;;6187455;28;20050;-74
2021/01/26 02:23:35;;;;;;;6.45;2.75;;;6.70;61.20;;;;;;6219712;28;20392;-74
2021/01/26 02:26:51;;;;;;;4.30;2.50;;;6.60;61.30;;;;;;6098912;29;20044;-75
2021/01/26 02:30:27;;;;;;;10.93;2.83;;;6.60;61.40;;;;;;6099719;29;20087;-74
2021/01/26 02:33:49;;;;;;;6.25;3.05;;;6.60;61.40;;;;;;5983404;29;20042;-74
2021/01/26 02:37:22;;;;;;;6.88;3.30;;;6.60;61.30;;;;;;6017142;29;20034;-74
2021/01/26 02:40:36;;;;;;;4.72;3.13;;;6.60;61.20;;;;;;6000617;29;20097;-74
2021/01/26 02:44:04;;;;;;;5.68;2.40;;;6.70;61.00;;;;;;6013392;29;20053;-76
2021/01/26 02:47:21;;;;;;;5.25;3.03;;;6.70;60.50;;;;;;6024671;29;20123;-74
2021/01/26 02:50:35;;;;;;;5.55;2.58;;;6.80;60.10;;;;;;6008270;29;20066;-74
2021/01/26 02:53:59;;;;;;;5.75;3.17;;;6.80;59.80;;;;;;6023039;29;20037;-74
2021/01/26 02:57:16;;;;;;;6.20;2.38;;;6.80;59.60;;;;;;6000313;29;20066;-74
2021/01/26 03:00:22;;;;;;;6.57;2.25;;;6.90;59.30;;;;;;6015895;29;20052;-74
2021/01/26 03:03:43;;;;;;;3.05;1.65;;;6.90;59.20;;;;;;6057444;29;20045;-73
2021/01/26 03:06:48;;;;;;;6.68;2.63;;;6.90;59.20;;;;;;6081808;29;20040;-74
2021/01/26 03:09:56;;;;;;;3.08;2.08;;;6.90;59.20;;;;;;6135094;28;20130;-73
2021/01/26 03:13:01;;;;;;;3.70;2.13;;;6.90;59.20;;;;;;6187885;28;20481;-75
2021/01/26 03:16:07;;;;;;;4.90;2.10;;;6.90;59.30;;;;;;6181199;28;20031;-75
2021/01/26 03:19:21;;;;;;;3.03;1.98;;;6.90;59.30;;;;;;6199998;28;20042;-76
2021/01/26 03:22:26;;;;;;;4.35;2.00;;;6.90;59.10;;;;;;6198826;28;20054;-75
2021/01/26 03:25:29;;;;;;;5.93;2.10;;;6.80;59.20;;;;;;6181510;28;20460;-75
2021/01/26 03:28:33;;;;;;;5.63;1.92;;;6.80;59.30;;;;;;6183929;28;20031;-74
2021/01/26 03:31:39;;;;;;;7.00;1.92;;;6.80;59.20;;;;;;6197208;28;20046;-74
2021/01/26 03:39:04;;;;;;;7.10;2.53;;;6.90;59.20;;;;;;6199376;28;20030;-75
2021/01/26 03:42:06;;;;;;;3.60;1.95;;;6.90;58.90;;;;;;6179650;28;20081;-74
2021/01/26 03:45:08;;;;;;;4.25;2.08;;;6.90;58.80;;;;;;6181190;28;20066;-75
2021/01/26 03:48:56;;;;;;;3.13;2.03;;;6.90;58.70;;;;;;6199472;28;20043;-75
2021/01/26 03:51:57;;;;;;;6.63;2.25;;;6.90;58.70;;;;;;6062022;29;20079;-75
2021/01/26 03:55:10;;;;;;;11.73;2.40;;;7.00;58.60;;;;;;6080534;29;20041;-75
2021/01/26 03:58:55;;;;;;;4.43;2.22;;;7.00;58.50;;;;;;6073045;29;20442;-75
2021/01/26 04:02:16;;;;;;;2.60;1.58;;;7.00;58.30;;;;;;6060361;29;20057;-74
2021/01/26 04:05:38;;;;;;;3.38;2.28;;;7.00;58.20;;;;;;6079028;29;20077;-75
2021/01/26 04:09:11;;;;;;;4.72;2.65;;;7.00;58.20;;;;;;6077861;29;20037;-74
2021/01/26 04:12:22;;;;;;;4.13;2.50;;;7.00;58.20;;;;;;6078374;29;20135;-74
2021/01/26 04:15:44;;;;;;;2.78;1.95;;;7.00;58.20;;;;;;6078516;29;20477;-75
2021/01/26 04:18:48;;;;;;;4.22;2.20;;;7.10;58.20;;;;;;6101370;29;20122;-74
2021/01/26 04:21:50;;;;;;;5.72;2.38;;;7.00;58.00;;;;;;6125155;29;20063;-74
2021/01/26 04:24:51;;;;;;;4.22;2.05;;;7.00;58.00;;;;;;6108169;29;20110;-74
2021/01/26 04:27:53;;;;;;;4.72;1.83;;;7.00;58.00;;;;;;6173780;28;20035;-74
2021/01/26 04:30:53;;;;;;;4.22;2.55;;;7.00;58.00;;;;;;6197772;28;20034;-74
2021/01/26 04:33:54;;;;;;;3.22;2.13;;;6.90;58.10;;;;;;6196427;28;20053;-74
2021/01/26 04:36:55;;;;;;;3.47;2.13;;;6.90;58.20;;;;;;6166052;28;20135;-74
2021/01/26 04:39:56;;;;;;;3.70;1.77;;;6.90;58.30;;;;;;6173939;28;20035;-74
2021/01/26 04:43:38;;;;;;;5.90;2.00;;;6.90;58.40;;;;;;6184134;28;20475;-75
2021/01/26 04:46:57;;;;;;;3.95;2.50;;;6.80;58.40;;;;;;6217613;28;20025;-74
2021/01/26 04:50:09;;;;;;;2.25;1.63;;;6.80;58.40;;;;;;6199525;28;20052;-74
2021/01/26 04:53:13;;;;;;;4.20;2.38;;;6.80;58.60;;;;;;6202204;28;20061;-74
2021/01/26 04:56:37;;;;;;;4.18;2.00;;;6.80;58.70;;;;;;6203058;28;20038;-74
2021/01/26 04:59:46;;;;;;;7.57;2.17;;;6.80;58.80;;;;;;6190482;28;20030;-74
2021/01/26 05:03:09;;;;;;;3.40;1.55;;;6.80;58.70;;;;;;6180399;28;20026;-74
2021/01/26 05:06:16;;;;;;;5.38;2.58;;;6.80;58.70;;;;;;6221981;28;20034;-75
2021/01/26 05:09:22;;;;;;;5.55;2.58;;;6.70;58.50;;;;;;6194972;28;20050;-75
2021/01/26 05:12:26;;;;;;;4.35;1.98;;;6.70;58.50;;;;;;6198723;28;20045;-76
2021/01/26 05:15:30;;;;;;;4.57;2.15;;;6.70;58.60;;;;;;6211300;28;20030;-74
2021/01/26 05:18:35;;;;;;;3.47;2.10;;;6.70;58.60;;;;;;6184935;28;20034;-74
2021/01/26 05:21:43;;;;;;;3.38;1.83;;;6.70;58.70;;;;;;6201781;28;20121;-74
2021/01/26 05:25:14;;;;;;;5.30;2.20;;;6.80;58.70;;;;;;6188858;28;20040;-74
2021/01/26 05:28:17;;;;;;;7.90;2.92;;;6.70;58.50;;;;;;6210151;28;20097;-73
2021/01/26 05:31:28;;;;;;;4.72;2.25;;;6.80;58.60;;;;;;6192299;28;20069;-74
2021/01/26 05:34:33;;;;;;;6.60;2.50;;;6.80;58.60;;;;;;6210818;28;20034;-75
2021/01/26 05:37:34;;;;;;;6.13;2.42;;;6.80;58.40;;;;;;6196992;28;20048;-75
2021/01/26 05:40:39;;;;;;;4.03;2.42;;;6.80;58.40;;;;;;6179673;28;20077;-75
2021/01/26 05:43:40;;;;;;;9.63;2.58;;;6.80;58.40;;;;;;6178504;28;20360;-75
2021/01/26 05:46:46;;;;;;;4.75;2.58;;;6.80;58.50;;;;;;6194475;28;20034;-75
2021/01/26 05:49:47;;;;;;;3.25;2.50;;;6.80;58.50;;;;;;6178679;28;20125;-75
2021/01/26 05:52:48;;;;;;;5.43;2.60;;;6.70;58.50;;;;;;6178932;28;20092;-75
2021/01/26 05:59:35;;;;;;;6.03;2.75;;;6.70;58.70;;;;;;6195539;28;20069;-75
2021/01/26 06:02:36;;;;;;;9.43;2.75;;;6.70;58.80;;;;;;6199029;28;20073;-75
2021/01/26 06:05:39;;;;;;;3.95;2.15;;;6.60;58.80;;;;;;6201148;28;20030;-75
2021/01/26 06:08:52;;;;;;;4.93;2.55;;;6.60;58.80;;;;;;6190309;28;20046;-74
2021/01/26 06:12:09;;;;;;;4.10;1.95;;;6.60;58.80;;;;;;6177031;28;20044;-74
2021/01/26 06:15:11;;;;;;;3.05;2.30;;;6.60;58.90;;;;;;6174137;28;20030;-75
2021/01/26 06:18:13;;;;;;;5.50;2.40;;;6.50;58.90;;;;;;6175427;28;20031;-74
2021/01/26 06:21:14;;;;;;;4.22;2.60;;;6.50;59.00;;;;;;6175992;28;20444;-75
2021/01/26 06:24:17;;;;;;;3.97;1.92;;;6.50;59.10;;;;;;6175363;28;20038;-75
2021/01/26 06:27:39;;;;;;;6.05;2.58;;;6.50;59.20;;;;;;6193777;28;20532;-75
2021/01/26 06:30:58;;;;;;;5.32;2.20;;;6.50;59.20;;;;;;6214232;28;20046;-75
2021/01/26 06:34:36;;;;;;;4.38;2.78;;;6.40;59.30;;;;;;6216809;28;20399;-77
2021/01/26 06:38:02;;;;;;;4.18;1.77;;;6.40;59.40;;;;;;6198627;28;20041;-75
2021/01/26 06:41:31;;;;;;;2.75;1.98;;;6.30;59.40;;;;;;6214861;28;20030;-75
2021/01/26 06:44:44;;;;;;;;;;;6.30;59.50;;;;;;6210247;28;20118;-74
2021/01/26 06:48:01;;;;;;;2.05;1.80;;;6.30;59.50;;;;;;6192637;28;19921;-76
2021/01/26 06:51:20;;;;;;;5.07;3.00;;;6.30;59.40;;;;;;6194045;28;20038;-75
2021/01/26 06:54:38;;;;;;;6.53;2.90;;;6.30;59.50;;;;;;6203171;28;20097;-75
2021/01/26 06:58:00;;;;;;;8.13;4.00;;;6.20;59.30;;;;;;6174304;28;20050;-76
2021/01/26 07:01:38;;;;;;;8.10;3.55;;;6.20;59.30;;;;;;6190644;28;20046;-74
2021/01/26 07:05:09;;;;;;;8.23;3.47;;;6.20;59.40;;;;;;6180899;28;20038;-73
2021/01/26 07:08:20;;;;;;;9.15;4.20;;;6.20;59.40;;;;;;6197201;28;20035;-76
2021/01/26 07:11:35;;;;;;;9.57;3.55;;;6.20;59.30;;;;;;6203105;28;20386;-73
2021/01/26 07:14:38;;;;;;;9.90;3.53;;;6.20;59.20;;;;;;6208636;28;20367;-76
2021/01/26 07:18:05;;;;;;;8.70;3.33;;;6.10;59.20;;;;;;6189944;28;20041;-77
2021/01/26 07:21:44;;;;;;;7.47;3.42;;;6.20;59.10;;;;;;6228351;28;20085;-76
2021/01/26 07:25:02;;;;;;;7.33;3.13;;;6.10;59.10;;;;;;6183610;28;20170;-75
2021/01/26 07:28:09;;;;;;;4.97;2.30;;;6.10;59.00;;;;;;6185880;28;20576;-74
2021/01/26 07:31:33;;;;;;;5.63;2.87;;;6.10;58.90;;;;;;6176126;28;20052;-75
2021/01/26 07:35:12;;;;;;;6.65;3.05;;;6.20;59.00;;;;;;6174849;28;20053;-78
2021/01/26 07:38:15;;;;;;;4.22;2.40;;;6.20;59.00;;;;;;6181161;28;20034;-75
2021/01/26 07:41:29;;;;;;;3.30;2.15;;;6.20;58.90;;;;;;6165374;28;20042;-75
2021/01/26 07:44:55;;;;;;;4.82;2.70;;;6.30;58.70;;;;;;6196730;28;20037;-74
2021/01/26 07:48:11;;;;;;;6.20;2.42;;;6.30;58.60;;;;;;6194076;28;20483;-74
2021/01/26 07:51:20;;;;;;;6.75;2.47;;;6.30;58.60;;;;;;6203802;28;20399;-75
2021/01/26 07:54:42;;;;;;;8.45;2.25;;;6.40;58.40;;;;;;6198850;28;20359;-75
2021/01/26 07:57:51;;;;;;;5.50;2.50;;;6.40;58.30;;;;;;6211883;28;20160;-74
2021/01/26 08:00:57;;;;;;;5.68;2.65;;;6.40;58.30;;;;;;6213995;28;20073;-75
2021/01/26 08:04:03;;;;;;;3.00;2.13;;;6.40;58.30;;;;;;6187603;28;20049;-75
2021/01/26 08:07:05;;;;;;;5.47;2.40;;;6.40;58.30;;;;;;6181522;28;20097;-75
2021/01/26 08:10:16;;;;;;;6.40;2.90;;;6.50;58.20;;;;;;6180832;28;20038;-76
2021/01/26 08:13:29;;;;;;;6.10;2.70;;;6.50;58.20;;;;;;6179874;28;20030;-74
2021/01/26 08:16:35;;;;;;;6.07;2.30;;;6.60;58.10;;;;;;6182279;28;20030;-75
2021/01/26 08:19:43;;;;;;;10.73;3.92;;;6.60;58.00;;;;;;6193105;28;20031;-75
2021/01/26 08:22:58;;;;;;;4.70;2.42;;;6.70;57.80;;;;;;6211649;28;20528;-75
2021/01/26 08:26:17;;;;;;;5.07;2.70;;;6.80;57.60;;;;;;6165264;28;20113;-75
2021/01/26 08:29:37;;;;;;;5.53;2.60;;;6.90;57.40;;;;;;6163834;28;20360;-74
2021/01/26 08:32:38;;;;;;;11.30;3.70;;;7.10;57.40;;;;;;6185827;28;20034;-74
2021/01/26 08:35:43;;;;;;;7.28;3.80;;;7.20;57.30;;;;;;6195916;28;20053;-75
2021/01/26 08:39:04;;;;;;;9.70;3.40;;;7.40;57.00;;;;;;6197118;28;20084;-74
2021/01/26 08:42:08;;;;;;;9.02;3.92;;;7.60;56.60;;;;;;6178060;28;20130;-75
2021/01/26 08:45:10;;;;;;;7.55;3.72;;;7.70;56.00;;;;;;6197922;28;20038;-74
2021/01/26 08:48:23;;;;;;;10.02;3.45;;;7.80;55.80;;;;;;6200582;28;20049;-74
2021/01/26 08:51:26;;;;;;;5.55;2.97;;;8.00;55.70;;;;;;6218185;28;20153;-75
2021/01/26 08:54:43;;;;;;;5.65;2.80;;;8.10;55.30;;;;;;6203195;28;20026;-75
2021/01/26 08:57:44;;;;;;;6.00;3.22;;;8.20;55.00;;;;;;6202639;28;20038;-75
2021/01/26 09:00:48;;;;;;;6.28;3.53;;;8.30;54.70;;;;;;6183237;28;20046;-75
2021/01/26 09:03:54;;;;;;;6.38;3.05;;;8.40;54.30;;;;;;6203149;28;20034;-75
2021/01/26 09:06:55;;;;;;;5.53;2.95;;;8.50;54.10;;;;;;6182608;28;22710;-74
2021/01/26 09:09:56;;;;;;;7.75;3.50;;;8.60;53.50;;;;;;6199514;28;20103;-75
2021/01/26 09:13:22;;;;;;;8.60;3.20;;;8.60;52.60;;;;;;6204692;28;20041;-75
2021/01/26 09:16:28;;;;;;;7.25;3.95;;;8.70;52.70;;;;;;6194475;28;20023;-74
2021/01/26 09:19:51;;;;;;;10.23;3.80;;;8.70;52.70;;;;;;6196631;28;20027;-75
2021/01/26 09:23:03;;;;;;;9.90;2.85;;;8.70;52.70;;;;;;6180472;28;20440;-76
2021/01/26 09:26:16;;;;;;;8.43;3.40;;;8.70;52.50;;;;;;6176500;28;20134;-76
2021/01/26 09:29:28;;;;;;;7.28;3.33;;;8.80;52.60;;;;;;6179150;28;20070;-75
2021/01/26 09:32:29;;;;;;;11.40;3.97;;;8.80;52.80;;;;;;6192765;28;20398;-75
2021/01/26 09:35:36;;;;;;;9.98;3.88;;;8.80;52.70;;;;;;6194820;28;20035;-75
2021/01/26 09:38:45;;;;;;;7.68;3.35;;;8.80;52.90;;;;;;6161292;28;20460;-76
2021/01/26 09:41:47;;;;;;;;;;;8.80;53.00;;;;;;6191726;28;20113;-75
2021/01/26 09:45:03;;;;;;;9.15;3.50;;;8.80;52.90;;;;;;6194232;28;19913;-75
2021/01/26 09:48:05;;;;;;;9.88;3.17;;;8.80;53.00;;;;;;6193607;28;20042;-75
2021/01/26 09:51:18;;;;;;;12.68;3.92;;;8.70;53.10;;;;;;6194269;28;20124;-74
2021/01/26 09:54:30;;;;;;;9.77;3.55;;;8.70;53.20;;;;;;6201696;28;20080;-76
2021/01/26 09:57:32;;;;;;;14.52;4.18;;;8.60;53.20;;;;;;6190564;28;20035;-75
2021/01/26 10:00:33;;;;;;;16.55;3.53;;;8.60;52.90;;;;;;6193284;28;20133;-75
2021/01/26 10:03:35;;;;;;;14.50;4.20;;;8.50;52.90;;;;;;6193523;28;20038;-76
2021/01/26 10:06:37;;;;;;;13.55;6.80;;;8.50;52.90;;;;;;6191275;28;20041;-74
2021/01/26 10:09:41;;;;;;;32.50;6.63;;;8.50;53.30;;;;;;6196182;28;20107;-78
2021/01/26 10:12:45;;;;;;;15.50;6.32;;;8.60;53.10;;;;;;6192550;28;20039;-75
2021/01/26 10:15:46;;;;;;;14.75;4.88;;;8.60;52.80;;;;;;6192272;28;20246;-76
2021/01/26 10:18:47;;;;;;;22.48;4.90;;;8.60;52.60;;;;;;6175313;28;20476;-75
2021/01/26 10:21:49;;;;;;;37.17;13.05;;;8.70;52.60;;;;;;6189476;28;20085;-76
2021/01/26 10:24:50;;;;;;;18.40;5.78;;;8.90;52.30;;;;;;6176612;28;20034;-76
2021/01/26 10:27:51;;;;;;;13.63;4.70;;;9.10;51.80;;;;;;6167701;28;20038;-76
2021/01/26 10:30:53;;;;;;;10.07;4.28;;;9.30;51.30;;;;;;6200268;28;20379;-77
2021/01/26 10:33:56;;;;;;;6.85;3.70;;;9.40;50.70;;;;;;6200429;28;20041;-76
2021/01/26 10:37:22;;;;;;;7.55;3.53;;;9.50;50.20;;;;;;6171389;28;20046;-76
2021/01/26 10:40:32;;;;;;;29.30;4.97;;;9.70;50.60;;;;;;6173201;28;20030;-78
2021/01/26 10:43:34;;;;;;;36.38;6.90;;;10.00;50.50;;;;;;6212059;28;20030;-76
2021/01/26 10:46:40;;;;;;;6.10;3.47;;;10.30;49.90;;;;;;6193288;28;20039;-76
2021/01/26 10:49:42;;;;;;;53.13;7.03;;;10.50;49.00;;;;;;6202144;28;20037;-75
2021/01/26 10:52:47;;;;;;;11.20;2.70;;;10.70;47.40;;;;;;6186986;28;20038;-76
2021/01/26 10:55:48;;;;;;;7.95;2.92;;;10.80;46.20;;;;;;6221121;28;20038;-74
2021/01/26 10:58:49;;;;;;;9.65;4.80;;;10.90;45.80;;;;;;6198698;28;20172;-76
2021/01/26 11:01:52;;;;;;;13.63;5.05;;;11.00;45.60;;;;;;6174029;28;20046;-78
2021/01/26 11:04:53;;;;;;;9.15;3.33;;;11.30;45.30;;;;;;6212621;28;20096;-75
2021/01/26 11:07:54;;;;;;;6.68;3.30;;;11.50;44.50;;;;;;6196474;28;20045;-76
2021/01/26 11:10:55;;;;;;;5.40;3.17;;;11.70;44.90;;;;;;6206468;28;20081;-76
2021/01/26 11:14:00;;;;;;;11.57;3.75;;;11.90;44.60;;;;;;6183367;28;20050;-76
2021/01/26 11:17:01;;;;;;;37.63;14.30;;;12.10;43.70;;;;;;6184483;28;20385;-76
2021/01/26 11:20:04;;;;;;;15.75;7.63;;;12.30;44.40;;;;;;6199101;28;20140;-77
2021/01/26 11:23:05;;;;;;;9.20;3.92;;;12.60;43.00;;;;;;6214328;28;20043;-75
2021/01/26 11:26:08;;;;;;;8.38;4.00;;;12.70;42.10;;;;;;6182110;28;20062;-76
2021/01/26 11:29:09;;;;;;;15.75;5.30;;;13.00;41.80;;;;;;6199317;28;20034;-76
2021/01/26 11:32:10;;;;;;;22.95;9.63;;;13.30;41.30;;;;;;6182303;28;20066;-76
2021/01/26 11:35:14;;;;;;;17.13;7.10;;;13.30;40.70;;;;;;6199852;28;20034;-77
2021/01/26 11:38:15;;;;;;;20.38;8.02;;;13.10;41.50;;;;;;6181812;28;20065;-76
2021/01/26 11:41:16;;;;;;;12.93;5.68;;;12.90;41.80;;;;;;6182538;28;20169;-74
2021/01/26 11:44:17;;;;;;;14.30;5.82;;;12.60;41.70;;;;;;6166056;28;20027;-75
2021/01/26 11:47:18;;;;;;;5.93;3.22;;;12.40;42.30;;;;;;6171982;28;20030;-74
2021/01/26 11:50:20;;;;;;;7.55;2.97;;;12.20;42.70;;;;;;6196623;28;20065;-75
2021/01/26 11:53:21;;;;;;;9.15;3.03;;;12.10;42.60;;;;;;6179263;28;20030;-77
2021/01/26 11:56:24;;;;;;;5.85;2.90;;;11.90;42.40;;;;;;6196950;28;20031;-76
2021/01/26 11:59:24;;;;;;;6.65;3.00;;;11.70;42.70;;;;;;6179244;28;20464;-75
2021/01/26 12:02:26;;;;;;;7.60;3.38;;;11.60;43.10;;;;;;6202812;28;20040;-76
2021/01/26 12:05:30;;;;;;;3.90;2.65;;;11.40;43.60;;;;;;6201432;28;20038;-75
2021/01/26 12:08:31;;;;;;;2.65;2.05;;;11.40;43.70;;;;;;6220407;28;20040;-76
2021/01/26 12:11:35;;;;;;;4.70;2.70;;;11.30;43.60;;;;;;6203140;28;20063;-76
2021/01/26 12:14:36;;;;;;;6.63;2.80;;;11.20;43.80;;;;;;6222259;28;20042;-76
2021/01/26 12:17:37;;;;;;;10.32;3.05;;;11.10;43.80;;;;;;6211770;28;20432;-77
2021/01/26 12:20:40;;;;;;;12.65;2.72;;;11.10;44.00;;;;;;6207864;28;20329;-75
2021/01/26 12:23:43;;;;;;;7.60;2.75;;;11.10;44.10;;;;;;6187429;28;20035;-75
2021/01/26 12:26:43;;;;;;;6.03;3.13;;;11.10;44.10;;;;;;6203193;28;20023;-76
2021/01/26 12:29:44;;;;;;;6.57;3.53;;;11.00;44.40;;;;;;6204662;28;20117;-75
2021/01/26 12:32:46;;;;;;;5.47;3.15;;;11.00;44.40;;;;;;6220198;28;20042;-76
2021/01/26 12:35:47;;;;;;;6.82;3.55;;;10.90;44.50;;;;;;6204402;28;20360;-76
2021/01/26 12:38:48;;;;;;;4.65;2.20;;;10.90;44.60;;;;;;6215877;28;20034;-75
2021/01/26 12:41:49;;;;;;;6.38;3.25;;;10.90;44.70;;;;;;6188381;28;20109;-75
2021/01/26 12:44:50;;;;;;;4.38;2.70;;;11.10;44.60;;;;;;6196307;28;20038;-76
2021/01/26 12:47:51;;;;;;;7.35;2.72;;;11.10;44.30;;;;;;6197844;28;20042;-75
2021/01/26 12:50:53;;;;;;;5.03;2.28;;;11.10;44.20;;;;;;6181927;28;20038;-75
2021/01/26 12:53:56;;;;;;;4.35;2.45;;;11.20;44.00;;;;;;6190754;28;20125;-76
2021/01/26 12:56:57;;;;;;;4.70;2.80;;;11.40;43.80;;;;;;6199518;28;20432;-74
2021/01/26 12:59:58;;;;;;;3.88;2.38;;;11.50;43.40;;;;;;6182335;28;20118;-75
2021/01/26 13:02:59;;;;;;;7.22;2.72;;;11.50;43.20;;;;;;6181482;28;20038;-75
2021/01/26 13:06:00;;;;;;;6.78;2.70;;;11.50;43.00;;;;;;6193954;28;20483;-75
2021/01/26 13:09:01;;;;;;;6.85;2.65;;;11.40;42.70;;;;;;6183154;28;20038;-76
2021/01/26 13:12:02;;;;;;;5.47;2.88;;;11.40;42.60;;;;;;6195859;28;20039;-75
2021/01/26 13:15:05;;;;;;;5.60;2.80;;;11.20;42.60;;;;;;6171809;28;20383;-75
2021/01/26 13:18:06;;;;;;;4.88;2.55;;;11.10;43.10;;;;;;6174767;28;20030;-75
2021/01/26 13:21:08;;;;;;;9.38;2.92;;;11.10;43.30;;;;;;6207357;28;20414;-76
2021/01/26 13:24:09;;;;;;;6.38;2.88;;;11.10;43.30;;;;;;6185291;28;20383;-75
2021/01/26 13:27:10;;;;;;;8.48;2.90;;;11.10;43.40;;;;;;6213460;28;20481;-75
2021/01/26 13:30:13;;;;;;;5.38;2.55;;;11.10;43.40;;;;;;6211791;28;20126;-76
2021/01/26 13:33:14;;;;;;;7.07;2.65;;;11.10;43.30;;;;;;6194948;28;20033;-76
2021/01/26 13:36:15;;;;;;;4.88;2.63;;;11.00;42.80;;;;;;6217118;28;20376;-75
2021/01/26 13:39:16;;;;;;;27.25;13.13;;;10.90;43.10;;;;;;6216315;28;20027;-76
2021/01/26 13:42:17;;;;;;;5.10;2.75;;;11.00;43.30;;;;;;6189473;28;20353;-75
2021/01/26 13:45:24;;;;;;;4.90;2.22;;;11.00;43.10;;;;;;6201884;28;20026;-76
2021/01/26 13:48:25;;;;;;;7.07;2.53;;;11.00;43.40;;;;;;6207801;28;20034;-77
2021/01/26 13:51:27;;;;;;;6.30;3.08;;;10.90;42.50;;;;;;6202155;28;20049;-76
2021/01/26 13:54:30;;;;;;;5.03;2.15;;;10.90;42.50;;;;;;6199437;28;20038;-76
2021/01/26 13:57:31;;;;;;;9.50;3.72;;;10.90;42.70;;;;;;6203686;28;20030;-76
2021/01/26 14:00:32;;;;;;;5.30;2.65;;;10.80;42.90;;;;;;6194293;28;20045;-76
2021/01/26 14:03:33;;;;;;;4.07;2.45;;;10.80;43.10;;;;;;6208889;28;20033;-75
2021/01/26 14:06:36;;;;;;;6.30;2.30;;;10.90;43.30;;;;;;6163603;28;20425;-75
2021/01/26 14:09:36;;;;;;;3.42;1.90;;;10.90;43.10;;;;;;6212315;28;20054;-77
2021/01/26 14:12:38;;;;;;;4.00;2.30;;;10.90;43.00;;;;;;6210763;28;20484;-76
2021/01/26 14:15:39;;;;;;;5.22;2.20;;;10.90;42.70;;;;;;6196732;28;20038;-76
2021/01/26 14:18:40;;;;;;;5.07;2.35;;;10.90;42.70;;;;;;6208670;28;20173;-73
2021/01/26 14:21:41;;;;;;;6.18;3.00;;;10.90;42.80;;;;;;6197650;28;20144;-77
2021/01/26 14:24:42;;;;;;;4.72;2.80;;;11.00;42.80;;;;;;6197650;28;20035;-75
2021/01/26 14:27:44;;;;;;;4.55;2.58;;;11.10;42.70;;;;;;6179926;28;20041;-76
2021/01/26 14:30:45;;;;;;;7.78;2.72;;;11.30;42.70;;;;;;6196968;28;20475;-75
2021/01/26 14:33:47;;;;;;;5.10;2.90;;;11.40;42.50;;;;;;6163850;28;20053;-76
2021/01/26 14:36:48;;;;;;;5.63;2.85;;;11.40;42.20;;;;;;6181575;28;20050;-75
2021/01/26 14:39:49;;;;;;;6.03;3.08;;;11.50;42.10;;;;;;6181476;28;20038;-76
2021/01/26 14:42:50;;;;;;;5.35;2.63;;;11.60;41.90;;;;;;6179133;28;20084;-75
2021/01/26 14:45:51;;;;;;;6.25;3.10;;;11.60;41.60;;;;;;6196113;28;20050;-76
2021/01/26 14:48:52;;;;;;;13.75;3.53;;;11.50;41.60;;;;;;6177511;28;20039;-77
2021/01/26 14:51:55;;;;;;;5.10;3.10;;;11.40;41.80;;;;;;6163846;28;20086;-76
2021/01/26 14:54:55;;;;;;;9.65;3.58;;;11.30;42.00;;;;;;6191851;28;20038;-75
2021/01/26 14:57:57;;;;;;;8.40;2.20;;;11.20;42.10;;;;;;6196591;28;20042;-75
2021/01/26 15:00:59;;;;;;;5.28;2.65;;;11.20;42.30;;;;;;6192603;28;20372;-75
2021/01/26 15:03:59;;;;;;;5.78;2.75;;;11.20;42.40;;;;;;6195594;28;20414;-76
2021/01/26 15:07:01;;;;;;;7.15;2.45;;;11.20;42.40;;;;;;6206691;28;20038;-76
2021/01/26 15:10:06;;;;;;;6.95;2.53;;;11.00;42.20;;;;;;6193463;28;20097;-76
2021/01/26 15:13:07;;;;;;;4.32;2.67;;;10.90;42.20;;;;;;6213993;28;20046;-77
2021/01/26 15:16:08;;;;;;;14.18;3.75;;;10.70;42.50;;;;;;6180077;28;20082;-76
2021/01/26 15:19:10;;;;;;;4.55;2.45;;;10.50;42.70;;;;;;6161027;28;20027;-75
2021/01/26 15:22:12;;;;;;;3.85;2.40;;;10.50;43.00;;;;;;6196595;28;20983;-76
2021/01/26 15:25:13;;;;;;;5.40;2.72;;;10.40;43.10;;;;;;6212268;28;20034;-75
2021/01/26 15:28:14;;;;;;;3.53;1.85;;;10.30;43.40;;;;;;6190547;28;20039;-76
2021/01/26 15:31:15;;;;;;;4.55;2.38;;;10.30;43.50;;;;;;6188694;28;20042;-75
2021/01/26 15:34:17;;;;;;;4.05;2.40;;;10.20;43.50;;;;;;6210422;28;20090;-75
2021/01/26 15:37:20;;;;;;;4.57;2.30;;;10.20;43.70;;;;;;6222982;28;20058;-77
2021/01/26 15:40:23;;;;;;;5.18;2.50;;;10.10;43.90;;;;;;6185347;28;20026;-75
2021/01/26 15:43:24;;;;;;;9.90;3.08;;;10.20;44.10;;;;;;6201666;28;20038;-77
2021/01/26 15:46:25;;;;;;;8.00;3.47;;;10.20;44.10;;;;;;6167620;28;20109;-75
2021/01/26 15:49:26;;;;;;;6.28;2.88;;;10.20;44.10;;;;;;6215618;28;20449;-76
2021/01/26 15:52:27;;;;;;;4.15;2.53;;;10.20;44.20;;;;;;6200391;28;20038;-75
2021/01/26 15:55:28;;;;;;;10.65;2.65;;;10.20;44.30;;;;;;6181739;28;20034;-77
2021/01/26 15:58:30;;;;;;;5.10;2.45;;;10.20;44.20;;;;;;6181995;28;20484;-75
2021/01/26 16:01:31;;;;;;;5.20;2.75;;;10.20;44.00;;;;;;6207006;28;20042;-76
2021/01/26 16:04:32;;;;;;;4.45;2.38;;;10.20;44.20;;;;;;6180251;28;20455;-76
2021/01/26 16:07:33;;;;;;;6.28;3.38;;;10.20;44.20;;;;;;6183327;28;20376;-76
2021/01/26 16:10:34;;;;;;;11.30;2.70;;;10.20;44.20;;;;;;6182924;28;20035;-75
2021/01/26 16:13:35;;;;;;;4.55;2.20;;;10.20;44.30;;;;;;6214827;28;20344;-75
2021/01/26 16:16:37;;;;;;;7.40;2.28;;;10.10;44.40;;;;;;6216110;28;20419;-76
2021/01/26 16:19:38;;;;;;;6.18;2.58;;;10.10;44.50;;;;;;6200071;28;20042;-75
2021/01/26 16:22:39;;;;;;;4.32;2.60;;;10.00;44.50;;;;;;6214484;28;20035;-76
2021/01/26 16:25:40;;;;;;;4.47;2.55;;;10.00;44.30;;;;;;6198822;28;20121;-75
2021/01/26 16:28:41;;;;;;;4.95;2.58;;;9.90;44.20;;;;;;6215328;28;20103;-76